Lyons, New Jersey
Current Conditions -  °F | °C
As of 6:53 PM on Saturday 25 Oct 2014 (Local Time) from KSMQ Reporting Station
Broken Clouds Broken Clouds  
Wind Chill: 58°   Ceiling: 7500
Heat Index: 58°   Visibility: 10mi
Dew Point: 44°   Wind: 3mph
Humidity: 60%   Direction: 170°S
Pressure: 29.64"   Gusts: NA
Location:  40.69°N, 74.55°W
Report Text: KSMQ 252253Z AUTO 17003KT 10SM BKN075 14/07 A2964 RMK AO2 SLP038 T01440067
Loading
Personal Weather Stations






























Interactive Weather Map
Tropical Storm Tracking
New forecast layout! Learn more

10-Day Weather Forecast

Advertisements
Track Severe Weather on mobile